SBI1073 UUDD-UWWW
Flight info
| Callsign | SBI1073 |
|---|---|
| Flight time | N/A |
| Altitude | 35000 |
| Route | TOGMO4Q TOGMO M56 ABAGI T794 RUBEK RUBEK8T |
| Aircraft | A320/M-SDE3FGHIRWY/LB1 |
Departure
| Time | 2026-05-05 17:53 |
|---|---|
| Airport | Domodedovo International Airport (UUDD) |
Arrival
| Time | N/A |
|---|---|
| Airport | Kurumoch International Airport (UWWW) |
| Time | Latitude | Longitude | Altitude | Speed | Heading |
|---|---|---|---|---|---|
| 2026-05-05 17:13 | 55.41176 | 37.89920 | 572 ft | 0 kts | 40° |
| 2026-05-05 17:38 | 55.41172 | 37.89914 | 572 ft | 4 kts | 41° |
| 2026-05-05 17:38 | 55.41154 | 37.89880 | 574 ft | 4 kts | 76° |
| 2026-05-05 17:38 | 55.41152 | 37.89845 | 574 ft | 4 kts | 71° |
| 2026-05-05 17:39 | 55.41139 | 37.89805 | 575 ft | 3 kts | 54° |
| 2026-05-05 17:39 | 55.41125 | 37.89771 | 575 ft | 4 kts | 65° |
| 2026-05-05 17:39 | 55.41124 | 37.89739 | 580 ft | 3 kts | 145° |
| 2026-05-05 17:39 | 55.41146 | 37.89713 | 577 ft | 4 kts | 145° |
| 2026-05-05 17:40 | 55.41156 | 37.89700 | 577 ft | 1 kts | 145° |
| 2026-05-05 17:42 | 55.41156 | 37.89701 | 577 ft | 0 kts | 145° |
| 2026-05-05 17:44 | 55.41155 | 37.89703 | 577 ft | 1 kts | 145° |
| 2026-05-05 17:45 | 55.41134 | 37.89727 | 576 ft | 7 kts | 146° |
| 2026-05-05 17:45 | 55.41077 | 37.89794 | 573 ft | 8 kts | 146° |
| 2026-05-05 17:45 | 55.41015 | 37.89868 | 569 ft | 9 kts | 151° |
| 2026-05-05 17:45 | 55.40967 | 37.89799 | 571 ft | 10 kts | 237° |
| 2026-05-05 17:46 | 55.40930 | 37.89703 | 573 ft | 8 kts | 235° |
| 2026-05-05 17:46 | 55.40892 | 37.89605 | 573 ft | 10 kts | 236° |
| 2026-05-05 17:46 | 55.40842 | 37.89512 | 573 ft | 12 kts | 222° |
| 2026-05-05 17:46 | 55.40792 | 37.89388 | 570 ft | 13 kts | 236° |
| 2026-05-05 17:47 | 55.40747 | 37.89278 | 574 ft | 10 kts | 222° |
| 2026-05-05 17:47 | 55.40674 | 37.89301 | 569 ft | 13 kts | 145° |
| 2026-05-05 17:47 | 55.40595 | 37.89397 | 567 ft | 15 kts | 146° |
| 2026-05-05 17:48 | 55.40397 | 37.89636 | 565 ft | 17 kts | 146° |
| 2026-05-05 17:48 | 55.40308 | 37.89742 | 560 ft | 16 kts | 146° |
| 2026-05-05 17:48 | 55.40206 | 37.89864 | 558 ft | 19 kts | 146° |
| 2026-05-05 17:48 | 55.40127 | 37.89960 | 560 ft | 11 kts | 146° |
| 2026-05-05 17:49 | 55.40059 | 37.89971 | 555 ft | 10 kts | 224° |
| 2026-05-05 17:49 | 55.40061 | 37.89871 | 561 ft | 7 kts | 294° |
| 2026-05-05 17:49 | 55.40078 | 37.89810 | 562 ft | 4 kts | 296° |
| 2026-05-05 17:49 | 55.40089 | 37.89773 | 563 ft | 2 kts | 296° |
| 2026-05-05 17:50 | 55.40104 | 37.89718 | 561 ft | 8 kts | 296° |
| 2026-05-05 17:50 | 55.40134 | 37.89610 | 564 ft | 9 kts | 294° |
| 2026-05-05 17:50 | 55.40168 | 37.89548 | 567 ft | 6 kts | 326° |
| 2026-05-05 17:50 | 55.40172 | 37.89543 | 564 ft | 0 kts | 326° |
| 2026-05-05 17:52 | 55.40250 | 37.89452 | 560 ft | 47 kts | 326° |
| 2026-05-05 17:52 | 55.40716 | 37.88893 | 573 ft | 112 kts | 326° |
| 2026-05-05 17:52 | 55.41512 | 37.87931 | 587 ft | 163 kts | 326° |
| 2026-05-05 17:53 | 55.42528 | 37.86698 | 897 ft | 181 kts | 321° |
| 2026-05-05 17:53 | 55.43433 | 37.85138 | 1566 ft | 184 kts | 312° |
| 2026-05-05 17:53 | 55.44297 | 37.83418 | 2118 ft | 194 kts | 309° |
| 2026-05-05 17:53 | 55.45191 | 37.81512 | 2515 ft | 210 kts | 308° |
| 2026-05-05 17:54 | 55.46116 | 37.79383 | 2973 ft | 227 kts | 297° |
| 2026-05-05 17:54 | 55.46440 | 37.76660 | 3589 ft | 235 kts | 262° |
| 2026-05-05 17:54 | 55.45785 | 37.74032 | 4348 ft | 241 kts | 230° |
| 2026-05-05 17:54 | 55.44621 | 37.71823 | 5084 ft | 249 kts | 228° |
| 2026-05-05 17:55 | 55.43461 | 37.69543 | 5996 ft | 248 kts | 230° |
| 2026-05-05 17:55 | 55.42154 | 37.67597 | 6950 ft | 250 kts | 206° |
| 2026-05-05 17:55 | 55.40392 | 37.67077 | 7514 ft | 273 kts | 176° |
| 2026-05-05 17:55 | 55.38578 | 37.68373 | 8078 ft | 297 kts | 147° |
| 2026-05-05 17:56 | 55.36983 | 37.70809 | 8748 ft | 308 kts | 143° |
| 2026-05-05 17:56 | 55.35372 | 37.73284 | 9454 ft | 314 kts | 144° |
| 2026-05-05 17:56 | 55.33683 | 37.75773 | 10244 ft | 317 kts | 144° |
| 2026-05-05 17:56 | 55.31987 | 37.78269 | 11040 ft | 319 kts | 145° |
| 2026-05-05 17:57 | 55.30208 | 37.80600 | 11847 ft | 318 kts | 149° |
| 2026-05-05 17:57 | 55.28367 | 37.82743 | 12684 ft | 316 kts | 153° |
| 2026-05-05 17:57 | 55.26370 | 37.84222 | 13542 ft | 310 kts | 166° |
| 2026-05-05 17:57 | 55.24295 | 37.85247 | 14231 ft | 311 kts | 169° |
| 2026-05-05 17:58 | 55.22178 | 37.86180 | 14844 ft | 315 kts | 170° |
| 2026-05-05 17:58 | 55.20030 | 37.87053 | 15475 ft | 318 kts | 171° |
| 2026-05-05 17:58 | 55.17861 | 37.87926 | 16119 ft | 321 kts | 170° |
| 2026-05-05 17:58 | 55.15676 | 37.88828 | 16745 ft | 324 kts | 170° |
| 2026-05-05 17:59 | 55.13474 | 37.89764 | 17388 ft | 327 kts | 169° |
| 2026-05-05 17:59 | 55.11242 | 37.90649 | 18000 ft | 329 kts | 175° |
| 2026-05-05 17:59 | 55.08965 | 37.90780 | 18547 ft | 327 kts | 189° |
| 2026-05-05 17:59 | 55.06701 | 37.90299 | 19089 ft | 329 kts | 191° |
| 2026-05-05 18:00 | 55.04421 | 37.89802 | 19642 ft | 332 kts | 189° |
| 2026-05-05 18:00 | 55.02120 | 37.89910 | 20176 ft | 341 kts | 171° |
| 2026-05-05 18:00 | 54.99886 | 37.91405 | 20650 ft | 353 kts | 152° |
| 2026-05-05 18:00 | 54.97991 | 37.94297 | 20783 ft | 375 kts | 129° |
| 2026-05-05 18:01 | 54.96501 | 37.98110 | 21081 ft | 385 kts | 126° |
| 2026-05-05 18:01 | 54.95017 | 38.02017 | 21559 ft | 389 kts | 126° |
| 2026-05-05 18:01 | 54.93514 | 38.05953 | 22064 ft | 392 kts | 126° |
| 2026-05-05 18:01 | 54.91989 | 38.09921 | 22601 ft | 395 kts | 126° |
| 2026-05-05 18:02 | 54.90458 | 38.13905 | 23109 ft | 398 kts | 124° |
| 2026-05-05 18:02 | 54.89226 | 38.18250 | 23580 ft | 404 kts | 113° |
| 2026-05-05 18:02 | 54.88197 | 38.22813 | 24019 ft | 407 kts | 113° |
| 2026-05-05 18:02 | 54.87159 | 38.27407 | 24469 ft | 409 kts | 113° |
| 2026-05-05 18:03 | 54.86111 | 38.32032 | 24920 ft | 412 kts | 113° |
| 2026-05-05 18:03 | 54.85026 | 38.36641 | 25348 ft | 414 kts | 118° |
| 2026-05-05 18:03 | 54.83646 | 38.41030 | 25779 ft | 415 kts | 121° |
| 2026-05-05 18:03 | 54.82230 | 38.45402 | 26192 ft | 417 kts | 121° |
| 2026-05-05 18:04 | 54.80801 | 38.49807 | 26605 ft | 420 kts | 121° |
| 2026-05-05 18:04 | 54.79383 | 38.54179 | 27009 ft | 422 kts | 121° |
| 2026-05-05 18:04 | 54.77906 | 38.58589 | 27400 ft | 424 kts | 125° |
| 2026-05-05 18:04 | 54.76091 | 38.62609 | 27780 ft | 424 kts | 135° |
| 2026-05-05 18:05 | 54.73902 | 38.66045 | 27996 ft | 428 kts | 146° |
| 2026-05-05 18:05 | 54.71388 | 38.68855 | 28135 ft | 433 kts | 151° |
| 2026-05-05 18:05 | 54.68773 | 38.71551 | 28274 ft | 441 kts | 151° |
| 2026-05-05 18:05 | 54.66121 | 38.74290 | 28415 ft | 447 kts | 151° |
| 2026-05-05 18:06 | 54.63434 | 38.77077 | 28552 ft | 453 kts | 151° |
| 2026-05-05 18:06 | 54.57959 | 38.82772 | 28836 ft | 463 kts | 150° |
| 2026-05-05 18:06 | 54.55187 | 38.85649 | 29046 ft | 466 kts | 150° |
| 2026-05-05 18:07 | 54.52438 | 38.88497 | 29284 ft | 468 kts | 150° |
| 2026-05-05 18:07 | 54.49647 | 38.91385 | 29541 ft | 469 kts | 150° |
| 2026-05-05 18:07 | 54.46851 | 38.94274 | 29895 ft | 468 kts | 150° |
| 2026-05-05 18:07 | 54.44070 | 38.97168 | 30201 ft | 467 kts | 148° |
| 2026-05-05 18:08 | 54.41487 | 39.00541 | 30506 ft | 467 kts | 139° |
| 2026-05-05 18:08 | 54.39245 | 39.04587 | 30802 ft | 467 kts | 129° |
| 2026-05-05 18:08 | 54.37419 | 39.09197 | 31096 ft | 467 kts | 120° |
| 2026-05-05 18:08 | 54.36032 | 39.14242 | 31390 ft | 467 kts | 112° |
| 2026-05-05 18:09 | 54.34807 | 39.19400 | 31687 ft | 466 kts | 113° |
| 2026-05-05 18:09 | 54.33570 | 39.24536 | 31981 ft | 465 kts | 113° |
| 2026-05-05 18:09 | 54.32328 | 39.29656 | 32280 ft | 465 kts | 113° |
| 2026-05-05 18:09 | 54.31100 | 39.34701 | 32562 ft | 464 kts | 114° |
| 2026-05-05 18:10 | 54.29860 | 39.39795 | 32851 ft | 463 kts | 114° |
| 2026-05-05 18:10 | 54.28623 | 39.44893 | 33140 ft | 463 kts | 114° |
| 2026-05-05 18:10 | 54.27385 | 39.49983 | 33428 ft | 462 kts | 114° |
| 2026-05-05 18:10 | 54.26150 | 39.55052 | 33724 ft | 461 kts | 114° |
| 2026-05-05 18:11 | 54.24908 | 39.60119 | 33984 ft | 461 kts | 114° |
| 2026-05-05 18:11 | 54.23667 | 39.65160 | 34217 ft | 460 kts | 114° |
| 2026-05-05 18:11 | 54.22423 | 39.70204 | 34456 ft | 460 kts | 114° |
| 2026-05-05 18:11 | 54.21177 | 39.75241 | 34688 ft | 460 kts | 114° |
| 2026-05-05 18:12 | 54.19929 | 39.80280 | 34842 ft | 460 kts | 114° |
| 2026-05-05 18:12 | 54.17417 | 39.90367 | 34880 ft | 461 kts | 114° |
| 2026-05-05 18:13 | 54.14905 | 40.00438 | 34879 ft | 461 kts | 114° |
| 2026-05-05 18:13 | 54.12406 | 40.10427 | 34880 ft | 461 kts | 114° |
| 2026-05-05 18:14 | 54.10409 | 40.20809 | 34877 ft | 461 kts | 107° |
| 2026-05-05 18:14 | 54.08602 | 40.31292 | 34886 ft | 461 kts | 107° |
| 2026-05-05 18:15 | 54.06773 | 40.41769 | 34883 ft | 461 kts | 107° |
| 2026-05-05 18:15 | 54.04937 | 40.52220 | 34883 ft | 461 kts | 107° |
| 2026-05-05 18:16 | 54.03411 | 40.60909 | 34882 ft | 461 kts | 107° |
| 2026-05-05 18:16 | 54.01565 | 40.71350 | 34885 ft | 461 kts | 107° |
| 2026-05-05 18:17 | 53.99703 | 40.81768 | 34889 ft | 461 kts | 108° |
| 2026-05-05 18:17 | 53.97831 | 40.92191 | 34891 ft | 461 kts | 108° |
| 2026-05-05 18:18 | 53.95958 | 41.02606 | 34897 ft | 460 kts | 108° |
| 2026-05-05 18:18 | 53.94159 | 41.13043 | 34900 ft | 460 kts | 106° |
| 2026-05-05 18:19 | 53.92486 | 41.23450 | 34898 ft | 460 kts | 105° |
| 2026-05-05 18:19 | 53.90796 | 41.33928 | 34901 ft | 460 kts | 106° |
| 2026-05-05 18:20 | 53.89075 | 41.44364 | 34901 ft | 459 kts | 106° |
| 2026-05-05 18:20 | 53.87334 | 41.54781 | 34900 ft | 459 kts | 106° |
| 2026-05-05 18:21 | 53.85574 | 41.65192 | 34900 ft | 459 kts | 107° |
| 2026-05-05 18:21 | 53.83805 | 41.75574 | 34900 ft | 459 kts | 107° |
| 2026-05-05 18:22 | 53.82036 | 41.85947 | 34903 ft | 459 kts | 107° |
| 2026-05-05 18:22 | 53.80264 | 41.96301 | 34902 ft | 458 kts | 107° |
| 2026-05-05 18:23 | 53.78473 | 42.06657 | 34899 ft | 458 kts | 107° |
| 2026-05-05 18:23 | 53.76671 | 42.16995 | 34901 ft | 458 kts | 107° |
| 2026-05-05 18:24 | 53.74862 | 42.27323 | 34901 ft | 458 kts | 107° |
| 2026-05-05 18:24 | 53.73044 | 42.37634 | 34900 ft | 458 kts | 107° |
| 2026-05-05 18:25 | 53.71228 | 42.47885 | 34900 ft | 458 kts | 107° |
| 2026-05-05 18:25 | 53.69393 | 42.58194 | 34900 ft | 458 kts | 107° |
| 2026-05-05 18:26 | 53.68025 | 42.68684 | 34904 ft | 459 kts | 94° |
| 2026-05-05 18:26 | 53.68286 | 42.79419 | 34901 ft | 459 kts | 85° |
| 2026-05-05 18:27 | 53.68825 | 42.90151 | 34899 ft | 459 kts | 85° |
| 2026-05-05 18:27 | 53.69324 | 43.00840 | 34900 ft | 459 kts | 85° |
| 2026-05-05 18:28 | 53.70071 | 43.16984 | 34902 ft | 460 kts | 85° |
| 2026-05-05 18:28 | 53.70569 | 43.27752 | 34899 ft | 460 kts | 85° |
| 2026-05-05 18:29 | 53.71061 | 43.38518 | 34901 ft | 460 kts | 85° |
| 2026-05-05 18:29 | 53.71542 | 43.49294 | 34904 ft | 460 kts | 86° |
| 2026-05-05 18:30 | 53.72006 | 43.60081 | 34901 ft | 460 kts | 86° |
| 2026-05-05 18:30 | 53.72458 | 43.70875 | 34907 ft | 461 kts | 86° |
| 2026-05-05 18:31 | 53.72897 | 43.81604 | 34908 ft | 461 kts | 86° |
| 2026-05-05 18:31 | 53.73326 | 43.92407 | 34909 ft | 461 kts | 86° |
| 2026-05-05 18:32 | 53.73750 | 44.03224 | 34907 ft | 461 kts | 86° |
| 2026-05-05 18:32 | 53.74171 | 44.14044 | 34909 ft | 462 kts | 86° |
| 2026-05-05 18:33 | 53.74591 | 44.24876 | 34910 ft | 462 kts | 86° |
| 2026-05-05 18:33 | 53.74979 | 44.35716 | 34912 ft | 462 kts | 86° |
| 2026-05-05 18:34 | 53.75343 | 44.46554 | 34911 ft | 462 kts | 87° |
| 2026-05-05 18:34 | 53.75580 | 44.57410 | 34912 ft | 462 kts | 88° |
| 2026-05-05 18:35 | 53.75731 | 44.68264 | 34913 ft | 462 kts | 89° |
| 2026-05-05 18:35 | 53.75904 | 44.79137 | 34911 ft | 462 kts | 88° |
| 2026-05-05 18:36 | 53.76098 | 44.90010 | 34912 ft | 462 kts | 88° |
| 2026-05-05 18:36 | 53.76280 | 45.00804 | 34912 ft | 463 kts | 89° |
| 2026-05-05 18:37 | 53.76437 | 45.11693 | 34913 ft | 463 kts | 89° |
| 2026-05-05 18:37 | 53.76583 | 45.22581 | 34920 ft | 463 kts | 89° |
| 2026-05-05 18:38 | 53.76749 | 45.33474 | 34923 ft | 463 kts | 89° |
| 2026-05-05 18:38 | 53.76906 | 45.44372 | 34926 ft | 463 kts | 89° |
| 2026-05-05 18:39 | 53.77050 | 45.55266 | 34927 ft | 463 kts | 89° |
| 2026-05-05 18:39 | 53.77188 | 45.66157 | 34930 ft | 464 kts | 89° |
| 2026-05-05 18:40 | 53.77312 | 45.77057 | 34931 ft | 464 kts | 89° |
| 2026-05-05 18:40 | 53.77417 | 45.87960 | 34930 ft | 464 kts | 89° |
| 2026-05-05 18:41 | 53.77515 | 45.98861 | 34935 ft | 464 kts | 89° |
| 2026-05-05 18:41 | 53.77609 | 46.09772 | 34937 ft | 464 kts | 89° |
| 2026-05-05 18:42 | 53.77697 | 46.20674 | 34942 ft | 464 kts | 89° |
| 2026-05-05 18:42 | 53.77776 | 46.31592 | 34941 ft | 464 kts | 89° |
| 2026-05-05 18:43 | 53.77834 | 46.42445 | 34943 ft | 464 kts | 90° |
| 2026-05-05 18:43 | 53.77882 | 46.53368 | 34942 ft | 464 kts | 90° |
| 2026-05-05 18:44 | 53.77908 | 46.58836 | 34776 ft | 465 kts | 90° |
| 2026-05-05 18:44 | 53.77929 | 46.64285 | 34537 ft | 464 kts | 90° |
| 2026-05-05 18:44 | 53.77947 | 46.69740 | 34296 ft | 464 kts | 90° |
| 2026-05-05 18:44 | 53.77964 | 46.75194 | 34057 ft | 464 kts | 90° |
| 2026-05-05 18:45 | 53.77978 | 46.80639 | 33803 ft | 464 kts | 90° |
| 2026-05-05 18:45 | 53.77988 | 46.86100 | 33431 ft | 464 kts | 90° |
| 2026-05-05 18:45 | 53.77996 | 46.91596 | 32311 ft | 470 kts | 90° |
| 2026-05-05 18:45 | 53.78004 | 46.97129 | 31320 ft | 472 kts | 90° |
| 2026-05-05 18:46 | 53.78008 | 47.02678 | 30341 ft | 473 kts | 90° |
| 2026-05-05 18:46 | 53.78008 | 47.08262 | 29145 ft | 476 kts | 90° |
| 2026-05-05 18:46 | 53.78003 | 47.13780 | 28218 ft | 474 kts | 90° |
| 2026-05-05 18:46 | 53.78016 | 47.19330 | 27416 ft | 469 kts | 87° |
| 2026-05-05 18:47 | 53.78334 | 47.24787 | 26635 ft | 464 kts | 82° |
| 2026-05-05 18:47 | 53.78725 | 47.30184 | 25875 ft | 460 kts | 82° |
| 2026-05-05 18:47 | 53.79105 | 47.35540 | 25134 ft | 457 kts | 82° |
| 2026-05-05 18:47 | 53.79476 | 47.40863 | 24415 ft | 454 kts | 82° |
| 2026-05-05 18:48 | 53.79841 | 47.46151 | 23712 ft | 451 kts | 82° |
| 2026-05-05 18:48 | 53.80203 | 47.51407 | 22927 ft | 449 kts | 82° |
| 2026-05-05 18:48 | 53.80559 | 47.56636 | 22117 ft | 446 kts | 82° |
| 2026-05-05 18:48 | 53.80911 | 47.61848 | 21337 ft | 444 kts | 82° |
| 2026-05-05 18:49 | 53.81259 | 47.67036 | 20572 ft | 442 kts | 82° |
| 2026-05-05 18:49 | 53.81601 | 47.72129 | 19833 ft | 440 kts | 82° |
| 2026-05-05 18:49 | 53.81942 | 47.77257 | 19108 ft | 438 kts | 83° |
| 2026-05-05 18:49 | 53.82279 | 47.82376 | 18399 ft | 436 kts | 83° |
| 2026-05-05 18:50 | 53.82606 | 47.87463 | 17616 ft | 433 kts | 85° |
| 2026-05-05 18:50 | 53.82580 | 47.92545 | 16827 ft | 432 kts | 95° |
| 2026-05-05 18:50 | 53.82276 | 47.97580 | 16060 ft | 429 kts | 95° |
| 2026-05-05 18:50 | 53.81973 | 48.02594 | 15311 ft | 427 kts | 95° |
| 2026-05-05 18:51 | 53.81672 | 48.07588 | 14574 ft | 425 kts | 95° |
| 2026-05-05 18:51 | 53.81376 | 48.12547 | 13861 ft | 423 kts | 95° |
| 2026-05-05 18:51 | 53.81080 | 48.17487 | 13080 ft | 420 kts | 95° |
| 2026-05-05 18:51 | 53.80782 | 48.22396 | 12297 ft | 417 kts | 95° |
| 2026-05-05 18:52 | 53.80482 | 48.27259 | 11539 ft | 413 kts | 95° |
| 2026-05-05 18:52 | 53.80182 | 48.32063 | 10867 ft | 407 kts | 95° |
| 2026-05-05 18:52 | 53.79886 | 48.36800 | 10191 ft | 402 kts | 96° |
| 2026-05-05 18:52 | 53.79595 | 48.41457 | 9478 ft | 396 kts | 96° |
| 2026-05-05 18:53 | 53.79303 | 48.46062 | 8700 ft | 391 kts | 96° |
| 2026-05-05 18:53 | 53.79011 | 48.50610 | 7940 ft | 387 kts | 96° |
| 2026-05-05 18:53 | 53.78722 | 48.55104 | 7191 ft | 382 kts | 96° |
| 2026-05-05 18:53 | 53.78433 | 48.59546 | 6466 ft | 378 kts | 96° |
| 2026-05-05 18:54 | 53.78147 | 48.63945 | 5709 ft | 374 kts | 96° |
| 2026-05-05 18:54 | 53.77869 | 48.68238 | 4972 ft | 370 kts | 96° |
| 2026-05-05 18:54 | 53.77591 | 48.72542 | 4220 ft | 366 kts | 96° |
| 2026-05-05 18:54 | 53.77311 | 48.76814 | 3465 ft | 363 kts | 97° |
| 2026-05-05 18:55 | 53.77033 | 48.81000 | 3074 ft | 351 kts | 97° |
| 2026-05-05 18:55 | 53.76766 | 48.85007 | 2930 ft | 334 kts | 98° |
| 2026-05-05 18:55 | 53.76338 | 48.88728 | 2936 ft | 312 kts | 105° |
| 2026-05-05 18:55 | 53.75833 | 48.92173 | 2949 ft | 291 kts | 105° |
| 2026-05-05 18:56 | 53.75522 | 48.94317 | 2942 ft | 278 kts | 105° |